Time;durP1;ratioP1;P1;durP2;ratioP2;P2;SDS_P1;SDS_P2;PMS_P1;PMS_P2;Temp;Humidity;BMP_temperature;BMP_pressure;BME280_temperature;BME280_humidity;BME280_pressure;Samples;Min_cycle;Max_cycle;Signal;HPM_P1;HPM_P2
2024/02/29 00:02:17;;;;;;;;;;;;;;;21.23;34.54;101517.70;102880;1291;62279;-81
2024/02/29 00:04:42;;;;;;;;;;;;;;;21.23;34.56;101517.53;102865;1291;75254;-81
2024/02/29 00:07:08;;;;;;;;;;;;;;;21.24;34.66;101520.00;102952;1291;62648;-81
2024/02/29 00:09:35;;;;;;;;;;;;;;;21.24;34.58;101519.61;103170;1288;62197;-80
2024/02/29 00:12:01;;;;;;;;;;;;;;;21.24;34.67;101515.50;102870;1289;62307;-81
2024/02/29 00:14:27;;;;;;;;;;;;;;;21.25;34.64;101514.23;103301;1289;62194;-80
2024/02/29 00:16:53;;;;;;;;;;;;;;;21.25;34.49;101514.73;102903;1288;62337;-80
2024/02/29 00:19:20;;;;;;;;;;;;;;;21.25;34.53;101511.67;102863;1294;62206;-81
2024/02/29 00:21:46;;;;;;;;;;;;;;;21.25;34.73;101512.36;102961;1288;62213;-81
2024/02/29 00:24:12;;;;;;;;;;;;;;;21.26;34.61;101509.14;102831;1288;62288;-81
2024/02/29 00:26:37;;;;;;;;;;;;;;;21.26;34.76;101511.25;103152;1289;62205;-80
2024/02/29 00:29:03;;;;;;;;;;;;;;;21.26;34.69;101511.61;103142;1290;62291;-79
2024/02/29 00:31:28;;;;;;;;;;;;;;;21.27;34.64;101511.24;103017;1292;62714;-80
2024/02/29 00:33:53;;;;;;;;;;;;;;;21.27;34.57;101506.41;102807;1288;63405;-80
2024/02/29 00:36:19;;;;;;;;;;;;;;;21.27;34.41;101501.38;103136;1292;63421;-80
2024/02/29 00:38:44;;;;;;;;;;;;;;;21.28;34.63;101502.78;102847;1288;63526;-81
2024/02/29 00:41:15;;;;;;;;;;;;;;;21.28;34.57;101500.78;102881;1288;62121;-80
2024/02/29 00:43:41;;;;;;;;;;;;;;;21.28;34.62;101500.09;102829;1292;62209;-81
2024/02/29 00:46:06;;;;;;;;;;;;;;;21.28;34.58;101496.69;103138;1289;62180;-81
2024/02/29 00:48:32;;;;;;;;;;;;;;;21.28;34.62;101500.96;103066;1292;62297;-81
2024/02/29 00:50:57;;;;;;;;;;;;;;;21.28;34.64;101493.27;103122;1288;63555;-81
2024/02/29 00:53:23;;;;;;;;;;;;;;;21.29;34.58;101496.45;102804;1289;62200;-79
2024/02/29 00:55:49;;;;;;;;;;;;;;;21.29;34.59;101497.32;103047;1288;62127;-82
2024/02/29 00:58:15;;;;;;;;;;;;;;;21.29;34.64;101495.70;103077;1288;62145;-80
2024/02/29 01:00:41;;;;;;;;;;;;;;;21.29;34.49;101493.90;103355;1289;63484;-80
2024/02/29 01:03:06;;;;;;;;;;;;;;;21.30;34.53;101496.02;102864;1288;62206;-81
2024/02/29 01:05:32;;;;;;;;;;;;;;;21.30;34.70;101495.11;103159;1288;62183;-80
2024/02/29 01:07:57;;;;;;;;;;;;;;;21.30;34.69;101496.16;103259;1288;62198;-79
2024/02/29 01:10:24;;;;;;;;;;;;;;;21.31;34.50;101493.98;103141;1288;72863;-80
2024/02/29 01:12:49;;;;;;;;;;;;;;;21.31;34.44;101492.55;103013;1288;62115;-80
2024/02/29 01:15:15;;;;;;;;;;;;;;;21.32;34.49;101498.61;103117;1294;62192;-81
2024/02/29 01:17:41;;;;;;;;;;;;;;;21.31;34.42;101495.03;102777;1288;62375;-82
2024/02/29 01:20:06;;;;;;;;;;;;;;;21.32;34.48;101496.44;102887;1290;62189;-80
2024/02/29 01:22:32;;;;;;;;;;;;;;;21.32;34.59;101495.73;103039;1294;62120;-82
2024/02/29 01:24:57;;;;;;;;;;;;;;;21.32;34.54;101496.23;102810;1291;62281;-81
2024/02/29 01:27:23;;;;;;;;;;;;;;;21.32;34.52;101494.98;103139;1288;63303;-83
2024/02/29 01:29:49;;;;;;;;;;;;;;;21.33;34.59;101494.23;103152;1294;62255;-81
2024/02/29 01:32:15;;;;;;;;;;;;;;;21.33;34.55;101496.02;103101;1289;62293;-80
2024/02/29 01:34:40;;;;;;;;;;;;;;;21.33;34.65;101495.80;102769;1288;62267;-81
2024/02/29 01:37:06;;;;;;;;;;;;;;;21.34;34.63;101499.70;103238;1292;63378;-82
2024/02/29 01:39:32;;;;;;;;;;;;;;;21.34;34.52;101494.35;102997;1288;62132;-81
2024/02/29 01:41:57;;;;;;;;;;;;;;;21.34;34.59;101495.77;103169;1288;62142;-80
2024/02/29 01:44:23;;;;;;;;;;;;;;;21.34;34.58;101496.27;102826;1294;62182;-80
2024/02/29 01:46:48;;;;;;;;;;;;;;;21.35;34.72;101489.82;103183;1288;62204;-81
2024/02/29 01:49:14;;;;;;;;;;;;;;;21.35;34.71;101489.27;102932;1288;62139;-80
2024/02/29 01:51:40;;;;;;;;;;;;;;;21.35;34.67;101487.80;103261;1288;62195;-81
2024/02/29 01:54:06;;;;;;;;;;;;;;;21.35;34.58;101491.56;103013;1291;62138;-80
2024/02/29 01:56:32;;;;;;;;;;;;;;;21.36;34.67;101492.98;102855;1294;62190;-80
2024/02/29 01:58:57;;;;;;;;;;;;;;;21.35;34.50;101493.52;102923;1294;62573;-82
2024/02/29 02:01:22;;;;;;;;;;;;;;;21.36;34.53;101489.70;103234;1288;62301;-81
2024/02/29 02:03:49;;;;;;;;;;;;;;;21.37;34.65;101490.57;102936;1288;62259;-80
2024/02/29 02:06:14;;;;;;;;;;;;;;;21.37;34.54;101488.94;102956;1291;63769;-81
2024/02/29 02:08:40;;;;;;;;;;;;;;;21.37;34.61;101488.21;103112;1291;62245;-81
2024/02/29 02:11:05;;;;;;;;;;;;;;;21.38;34.62;101490.18;103176;1293;62169;-82
2024/02/29 02:13:31;;;;;;;;;;;;;;;21.37;34.53;101489.09;103024;1289;62217;-81
2024/02/29 02:15:57;;;;;;;;;;;;;;;21.38;34.56;101485.66;102854;1288;62531;-81
2024/02/29 02:18:22;;;;;;;;;;;;;;;21.39;34.48;101489.92;103138;1292;62148;-81
2024/02/29 02:20:49;;;;;;;;;;;;;;;21.39;34.60;101484.54;103122;1294;73805;-80
2024/02/29 02:23:15;;;;;;;;;;;;;;;21.39;34.60;101488.65;103006;1291;75341;-81
2024/02/29 02:25:40;;;;;;;;;;;;;;;21.39;34.61;101489.73;102956;1289;63456;-81
2024/02/29 02:28:06;;;;;;;;;;;;;;;21.40;34.70;101489.86;102776;1292;62195;-81
2024/02/29 02:30:31;;;;;;;;;;;;;;;21.39;34.60;101493.09;102784;1294;62209;-80
2024/02/29 02:32:57;;;;;;;;;;;;;;;21.40;34.68;101493.09;102942;1289;62277;-81
2024/02/29 02:35:23;;;;;;;;;;;;;;;21.40;34.57;101494.88;102787;1288;75133;-81
2024/02/29 02:37:49;;;;;;;;;;;;;;;21.40;34.58;101493.04;103135;1289;62237;-80
2024/02/29 02:40:15;;;;;;;;;;;;;;;21.40;34.64;101494.14;102940;1288;63314;-80
2024/02/29 02:42:40;;;;;;;;;;;;;;;21.40;34.67;101500.20;103050;1292;62200;-81
2024/02/29 02:45:08;;;;;;;;;;;;;;;21.41;34.64;101494.27;103279;1288;62199;-79
2024/02/29 02:47:33;;;;;;;;;;;;;;;21.41;34.67;101496.59;102750;1291;62461;-82
2024/02/29 02:49:59;;;;;;;;;;;;;;;21.41;34.65;101497.27;102768;1288;62209;-81
2024/02/29 02:52:25;;;;;;;;;;;;;;;21.41;34.65;101492.79;102871;1291;63444;-81
2024/02/29 02:54:51;;;;;;;;;;;;;;;21.41;34.66;101485.63;102906;1294;72686;-81
2024/02/29 02:57:17;;;;;;;;;;;;;;;21.42;34.63;101482.73;102740;1288;62219;-80
2024/02/29 02:59:42;;;;;;;;;;;;;;;21.42;34.53;101483.58;103106;1289;62203;-80
2024/02/29 03:02:08;;;;;;;;;;;;;;;21.42;34.62;101482.73;103027;1289;63871;-81
2024/02/29 03:04:33;;;;;;;;;;;;;;;21.43;34.56;101485.36;102732;1292;62280;-83
2024/02/29 03:06:59;;;;;;;;;;;;;;;21.42;34.63;101490.20;102791;1294;62206;-80
2024/02/29 03:09:25;;;;;;;;;;;;;;;21.43;34.63;101485.73;103137;1289;62195;-81
2024/02/29 03:11:50;;;;;;;;;;;;;;;21.43;34.64;101490.01;103023;1291;62280;-80
2024/02/29 03:14:16;;;;;;;;;;;;;;;21.43;34.76;101490.34;102776;1288;62204;-79
2024/02/29 03:16:41;;;;;;;;;;;;;;;21.43;34.73;101491.77;103106;1292;62252;-81
2024/02/29 03:19:07;;;;;;;;;;;;;;;21.44;34.56;101485.83;102856;1289;62307;-83
2024/02/29 03:21:32;;;;;;;;;;;;;;;21.44;34.64;101488.33;102841;1291;64117;-83
2024/02/29 03:23:58;;;;;;;;;;;;;;;21.44;34.62;101495.66;102804;1288;62316;-81
2024/02/29 03:26:24;;;;;;;;;;;;;;;21.45;34.67;101495.84;102825;1288;62209;-81
2024/02/29 03:28:49;;;;;;;;;;;;;;;21.45;34.62;101503.86;103112;1288;62413;-81
2024/02/29 03:31:15;;;;;;;;;;;;;;;21.45;34.59;101500.11;103284;1288;62261;-80
2024/02/29 03:33:41;;;;;;;;;;;;;;;21.45;34.65;101499.55;102784;1294;62221;-81
2024/02/29 03:36:07;;;;;;;;;;;;;;;21.45;34.61;101506.54;102762;1288;62617;-82
2024/02/29 03:38:34;;;;;;;;;;;;;;;21.46;34.71;101507.94;102781;1292;62183;-81
2024/02/29 03:41:00;;;;;;;;;;;;;;;21.46;34.61;101512.95;102758;1291;72530;-81
2024/02/29 03:43:26;;;;;;;;;;;;;;;21.46;34.67;101513.50;103124;1288;63323;-80
2024/02/29 03:45:52;;;;;;;;;;;;;;;21.46;34.60;101513.66;102969;1289;62211;-81
2024/02/29 03:48:17;;;;;;;;;;;;;;;21.46;34.54;101514.90;103067;1289;62209;-82
2024/02/29 03:50:43;;;;;;;;;;;;;;;21.47;34.68;101515.41;103220;1288;63377;-80
2024/02/29 03:53:09;;;;;;;;;;;;;;;21.47;34.57;101514.34;103031;1288;62119;-80
2024/02/29 03:55:34;;;;;;;;;;;;;;;21.47;34.59;101521.48;103132;1288;76213;-81
2024/02/29 03:58:00;;;;;;;;;;;;;;;21.47;34.66;101519.86;103591;1288;62537;-79
2024/02/29 04:00:25;;;;;;;;;;;;;;;21.48;34.59;101518.94;103159;1294;62133;-80
2024/02/29 04:02:51;;;;;;;;;;;;;;;21.48;34.67;101521.05;103154;1294;62154;-81
2024/02/29 04:05:16;;;;;;;;;;;;;;;21.48;34.59;101523.22;103023;1288;62120;-82
2024/02/29 04:07:43;;;;;;;;;;;;;;;21.48;34.69;101526.94;103136;1289;76198;-81
2024/02/29 04:10:08;;;;;;;;;;;;;;;21.49;34.60;101528.55;103223;1289;63292;-80
2024/02/29 04:12:34;;;;;;;;;;;;;;;21.49;34.58;101529.05;102459;1288;983410;-80
2024/02/29 04:15:02;;;;;;;;;;;;;;;21.49;34.61;101532.84;102903;1290;62239;-79
2024/02/29 04:17:29;;;;;;;;;;;;;;;21.49;34.63;101531.17;103176;1294;62201;-81
2024/02/29 04:19:55;;;;;;;;;;;;;;;21.49;34.48;101532.96;103016;1288;62757;-81
2024/02/29 04:22:21;;;;;;;;;;;;;;;21.50;34.62;101538.13;102899;1291;62320;-80
2024/02/29 04:24:47;;;;;;;;;;;;;;;21.50;34.61;101543.67;103144;1289;62200;-80
2024/02/29 04:27:12;;;;;;;;;;;;;;;21.50;34.63;101542.04;103191;1293;62190;-81
2024/02/29 04:29:38;;;;;;;;;;;;;;;21.50;34.68;101541.70;102909;1288;62289;-80
2024/02/29 04:32:04;;;;;;;;;;;;;;;21.51;34.70;101539.16;103289;1294;62155;-80
2024/02/29 04:34:29;;;;;;;;;;;;;;;21.52;34.72;101540.88;102946;1291;62339;-81
2024/02/29 04:36:55;;;;;;;;;;;;;;;21.54;34.71;101538.27;102778;1292;62726;-80
2024/02/29 04:39:20;;;;;;;;;;;;;;;21.56;34.76;101540.64;102826;1290;63353;-81
2024/02/29 04:41:46;;;;;;;;;;;;;;;21.58;34.76;101539.61;102831;1289;62311;-82
2024/02/29 04:44:11;;;;;;;;;;;;;;;21.60;34.73;101542.52;102833;1294;62108;-81
2024/02/29 04:46:37;;;;;;;;;;;;;;;21.61;34.80;101544.60;102819;1292;62249;-80
2024/02/29 04:49:02;;;;;;;;;;;;;;;21.62;34.88;101542.78;102787;1294;62267;-82
2024/02/29 04:51:28;;;;;;;;;;;;;;;21.63;34.80;101543.08;102793;1289;63479;-81
2024/02/29 04:53:53;;;;;;;;;;;;;;;21.65;34.78;101547.98;103111;1294;62224;-81
2024/02/29 04:56:19;;;;;;;;;;;;;;;21.66;34.78;101545.94;103071;1294;62169;-80
2024/02/29 04:58:45;;;;;;;;;;;;;;;21.67;34.60;101553.38;103240;1289;63149;-81
2024/02/29 05:01:10;;;;;;;;;;;;;;;21.68;34.77;101554.77;103353;1292;62121;-82
2024/02/29 05:03:37;;;;;;;;;;;;;;;21.69;34.75;101550.25;103350;1294;62270;-80
2024/02/29 05:06:03;;;;;;;;;;;;;;;21.70;34.74;101553.23;103167;1291;62211;-81
2024/02/29 05:08:30;;;;;;;;;;;;;;;21.69;34.82;101552.17;103372;1288;62770;-82
2024/02/29 05:10:55;;;;;;;;;;;;;;;21.69;34.73;101558.65;103023;1294;62184;-84
2024/02/29 05:13:21;;;;;;;;;;;;;;;21.69;34.78;101560.45;103270;1291;62202;-81
2024/02/29 05:15:46;;;;;;;;;;;;;;;21.68;34.77;101560.66;103005;1291;77073;-80
2024/02/29 05:18:12;;;;;;;;;;;;;;;21.67;34.81;101558.73;103348;1289;62111;-81
2024/02/29 05:20:37;;;;;;;;;;;;;;;21.67;34.86;101554.99;103384;1289;62232;-81
2024/02/29 05:23:03;;;;;;;;;;;;;;;21.66;34.78;101555.05;103461;1288;62197;-80
2024/02/29 05:25:28;;;;;;;;;;;;;;;21.67;34.72;101553.91;103288;1294;62271;-80
2024/02/29 05:27:54;;;;;;;;;;;;;;;21.68;34.79;101556.77;103204;1292;76481;-79
2024/02/29 05:30:20;;;;;;;;;;;;;;;21.68;34.63;101555.83;103228;1289;62259;-79
2024/02/29 05:32:48;;;;;;;;;;;;;;;21.69;34.61;101559.20;103380;1292;62227;-81
2024/02/29 05:35:14;;;;;;;;;;;;;;;21.70;34.62;101561.83;103236;1294;73480;-80
2024/02/29 05:37:40;;;;;;;;;;;;;;;21.69;34.64;101564.02;103385;1294;62283;-80
2024/02/29 05:40:06;;;;;;;;;;;;;;;21.69;34.59;101571.17;102952;1294;62272;-80
2024/02/29 05:42:31;;;;;;;;;;;;;;;21.66;34.67;101569.93;103429;1292;62144;-79
2024/02/29 05:44:57;;;;;;;;;;;;;;;21.61;34.43;101566.48;104003;1291;62246;-80
2024/02/29 05:47:23;;;;;;;;;;;;;;;21.54;34.53;101570.45;104074;1294;61394;-81
2024/02/29 05:49:49;;;;;;;;;;;;;;;21.48;34.57;101570.67;104351;1294;75263;-81
2024/02/29 05:52:17;;;;;;;;;;;;;;;21.40;34.52;101570.23;103968;1291;62186;-79
2024/02/29 05:54:43;;;;;;;;;;;;;;;21.33;34.69;101570.87;104915;1291;62089;-80
2024/02/29 05:57:08;;;;;;;;;;;;;;;21.26;34.64;101571.10;104539;1290;62022;-80
2024/02/29 05:59:34;;;;;;;;;;;;;;;21.19;34.72;101567.36;104798;1294;62124;-80
2024/02/29 06:01:59;;;;;;;;;;;;;;;21.15;34.68;101566.89;104549;1291;62092;-81
2024/02/29 06:04:25;;;;;;;;;;;;;;;21.11;34.86;101572.31;104504;1289;62200;-80
2024/02/29 06:06:50;;;;;;;;;;;;;;;21.09;34.78;101575.65;104658;1289;62300;-80
2024/02/29 06:09:16;;;;;;;;;;;;;;;21.06;34.78;101578.86;104705;1289;62085;-80
2024/02/29 06:11:41;;;;;;;;;;;;;;;21.05;34.76;101579.13;104552;1294;62128;-80
2024/02/29 06:14:07;;;;;;;;;;;;;;;21.03;34.98;101577.60;104490;1289;62398;-78
2024/02/29 06:16:32;;;;;;;;;;;;;;;21.02;34.95;101580.36;104311;1291;62222;-79
2024/02/29 06:18:58;;;;;;;;;;;;;;;21.01;34.82;101583.83;104366;1289;62115;-79
2024/02/29 06:21:23;;;;;;;;;;;;;;;20.99;34.80;101583.40;104010;1291;62191;-80
2024/02/29 06:23:49;;;;;;;;;;;;;;;20.97;34.77;101586.23;104221;1291;62144;-80
2024/02/29 06:26:15;;;;;;;;;;;;;;;20.95;34.74;101586.86;104044;1294;62724;-80
2024/02/29 06:28:40;;;;;;;;;;;;;;;20.93;34.90;101585.73;104569;1291;62158;-80
2024/02/29 06:31:06;;;;;;;;;;;;;;;20.92;34.84;101589.16;104289;1294;62159;-80
2024/02/29 06:33:32;;;;;;;;;;;;;;;20.90;34.79;101591.89;104057;1294;73826;-79
2024/02/29 06:35:57;;;;;;;;;;;;;;;20.88;34.71;101586.90;103924;1293;62259;-80
2024/02/29 06:38:23;;;;;;;;;;;;;;;20.87;34.74;101583.95;104258;1295;62215;-80
2024/02/29 06:40:49;;;;;;;;;;;;;;;20.84;34.80;101584.09;104124;1291;62138;-80
2024/02/29 06:43:17;;;;;;;;;;;;;;;20.81;34.66;101582.82;104059;1291;62084;-79
2024/02/29 06:45:49;;;;;;;;;;;;;;;20.81;34.57;101583.21;104379;1292;72382;-79
2024/02/29 06:48:18;;;;;;;;;;;;;;;20.80;34.67;101580.39;104103;1292;75334;-80
2024/02/29 06:50:43;;;;;;;;;;;;;;;20.79;34.70;101585.43;104176;1291;62076;-79
2024/02/29 06:53:10;;;;;;;;;;;;;;;20.79;34.64;101586.00;104203;1292;62266;-81
2024/02/29 06:55:35;;;;;;;;;;;;;;;20.79;34.63;101592.64;104308;1292;60269;-82
2024/02/29 06:58:02;;;;;;;;;;;;;;;20.79;34.86;101587.78;104672;1291;60417;-82
2024/02/29 07:00:28;;;;;;;;;;;;;;;20.78;34.89;101587.48;104549;1290;60545;-80
2024/02/29 07:02:55;;;;;;;;;;;;;;;20.72;35.00;101583.70;104350;1291;62128;-79
2024/02/29 07:05:21;;;;;;;;;;;;;;;20.69;35.04;101579.92;104341;1292;62157;-80
2024/02/29 07:07:46;;;;;;;;;;;;;;;20.72;35.06;101581.39;104397;1290;62243;-80
2024/02/29 07:10:12;;;;;;;;;;;;;;;20.75;35.31;101580.66;104338;1293;62199;-80
2024/02/29 07:12:38;;;;;;;;;;;;;;;20.79;35.34;101579.91;104261;1292;62259;-80
2024/02/29 07:15:03;;;;;;;;;;;;;;;20.85;35.07;101578.29;104289;1293;62139;-79
2024/02/29 07:17:29;;;;;;;;;;;;;;;20.89;35.25;101574.49;104218;1291;60675;-80
2024/02/29 07:19:55;;;;;;;;;;;;;;;20.94;35.14;101567.05;104147;1291;62127;-81
2024/02/29 07:22:20;;;;;;;;;;;;;;;20.98;35.01;101563.29;104226;1292;62195;-80
2024/02/29 07:24:46;;;;;;;;;;;;;;;21.01;35.22;101555.94;104225;1292;62391;-80
2024/02/29 07:27:13;;;;;;;;;;;;;;;21.04;35.19;101552.51;104465;1292;62168;-80
2024/02/29 07:29:38;;;;;;;;;;;;;;;21.07;35.11;101554.33;104233;1291;73207;-78
2024/02/29 07:32:04;;;;;;;;;;;;;;;21.11;35.20;101558.56;104459;1293;62203;-79
2024/02/29 07:34:29;;;;;;;;;;;;;;;21.14;35.17;101558.74;104749;1294;62144;-78
2024/02/29 07:36:56;;;;;;;;;;;;;;;21.16;35.31;101557.69;104880;1290;61173;-80
2024/02/29 07:39:21;;;;;;;;;;;;;;;21.19;35.16;101559.67;104990;1288;62196;-78
2024/02/29 07:41:47;;;;;;;;;;;;;;;21.22;35.23;101554.83;104722;1292;62096;-79
2024/02/29 07:44:13;;;;;;;;;;;;;;;21.26;35.17;101552.65;104447;1289;75503;-81
2024/02/29 07:46:38;;;;;;;;;;;;;;;21.29;35.19;101550.89;104000;1295;62274;-79
2024/02/29 07:49:04;;;;;;;;;;;;;;;21.31;35.21;101554.16;104157;1288;62243;-80
2024/02/29 07:51:29;;;;;;;;;;;;;;;21.33;35.30;101549.56;104527;1292;60826;-78
2024/02/29 07:53:55;;;;;;;;;;;;;;;21.35;35.19;101541.18;104929;1289;61979;-79
2024/02/29 07:56:20;;;;;;;;;;;;;;;21.36;35.34;101544.67;104919;1290;76154;-80
2024/02/29 11:44:47;;;;;;;;;;;;;;;20.20;37.77;101476.85;104037;1289;76872;-81
2024/02/29 11:47:13;;;;;;;;;;;;;;;20.20;37.83;101476.84;104166;1289;63588;-81
2024/02/29 11:49:38;;;;;;;;;;;;;;;20.24;37.81;101477.34;104699;1288;62205;-82
2024/02/29 11:52:04;;;;;;;;;;;;;;;20.21;37.81;101475.19;104821;1288;62284;-81
2024/02/29 11:54:30;;;;;;;;;;;;;;;20.12;37.64;101475.36;105003;1288;61624;-83
2024/02/29 11:56:56;;;;;;;;;;;;;;;19.89;37.55;101469.10;104979;1288;75289;-81
2024/02/29 11:59:23;;;;;;;;;;;;;;;19.74;37.92;101465.80;105207;1288;60465;-82
2024/02/29 12:01:48;;;;;;;;;;;;;;;19.67;37.92;101466.73;105694;1288;60334;-78
2024/02/29 12:04:14;;;;;;;;;;;;;;;19.46;37.63;101461.08;105832;1291;60004;-79
2024/02/29 12:06:43;;;;;;;;;;;;;;;19.08;38.07;101460.05;106022;1288;59682;-80
2024/02/29 12:09:12;;;;;;;;;;;;;;;19.00;38.23;101459.40;105893;1288;60779;-79
2024/02/29 12:11:39;;;;;;;;;;;;;;;19.04;38.65;101458.08;105836;1288;60207;-79
2024/02/29 12:14:06;;;;;;;;;;;;;;;19.19;38.67;101455.89;106006;1291;72445;-80
2024/02/29 12:16:36;;;;;;;;;;;;;;;19.34;38.70;101459.53;105901;1288;75610;-80
2024/02/29 12:19:02;;;;;;;;;;;;;;;19.48;38.62;101463.95;105821;1289;60398;-79
2024/02/29 12:21:27;;;;;;;;;;;;;;;19.55;38.56;101465.36;106119;1288;59730;-78
2024/02/29 12:23:54;;;;;;;;;;;;;;;19.62;38.47;101461.43;106105;1288;59909;-80
2024/02/29 12:26:20;;;;;;;;;;;;;;;19.60;38.67;101455.10;106019;1289;59744;-80
2024/02/29 12:28:47;;;;;;;;;;;;;;;19.66;38.57;101455.72;105826;1288;62188;-79
2024/02/29 12:31:13;;;;;;;;;;;;;;;19.73;38.62;101449.58;104349;1288;59892;-79
2024/02/29 12:33:39;;;;;;;;;;;;;;;19.76;38.47;101446.38;104636;1292;62173;-80
2024/02/29 12:36:08;;;;;;;;;;;;;;;19.70;38.32;101445.14;104437;1288;62636;-80
2024/02/29 12:38:34;;;;;;;;;;;;;;;19.71;38.30;101442.92;104114;1291;63255;-79
2024/02/29 12:41:01;;;;;;;;;;;;;;;19.71;38.39;101437.02;104187;1290;62165;-80
2024/02/29 12:43:26;;;;;;;;;;;;;;;19.75;38.24;101434.33;106106;1288;60313;-80
2024/02/29 12:45:52;;;;;;;;;;;;;;;19.78;38.15;101431.48;106115;1288;60484;-80
2024/02/29 12:48:17;;;;;;;;;;;;;;;19.80;38.15;101430.67;106062;1288;59924;-79
2024/02/29 12:50:43;;;;;;;;;;;;;;;19.86;38.34;101432.48;106032;1288;60298;-80
2024/02/29 12:53:08;;;;;;;;;;;;;;;19.89;38.15;101433.36;106116;1288;59371;-81
2024/02/29 12:55:34;;;;;;;;;;;;;;;19.72;38.16;101424.29;106076;1288;60536;-80
2024/02/29 12:57:59;;;;;;;;;;;;;;;19.71;38.32;101425.95;105997;1289;60397;-79
2024/02/29 13:00:25;;;;;;;;;;;;;;;19.78;38.34;101424.85;105951;1288;59730;-79
2024/02/29 13:02:52;;;;;;;;;;;;;;;19.80;38.22;101423.53;105791;1288;60659;-82
2024/02/29 13:05:19;;;;;;;;;;;;;;;19.69;38.21;101421.62;105985;1288;59775;-83
2024/02/29 13:07:45;;;;;;;;;;;;;;;19.57;38.43;101420.29;105158;1288;62203;-80
2024/02/29 13:10:10;;;;;;;;;;;;;;;19.52;38.63;101418.08;104692;1290;60371;-81
2024/02/29 13:12:36;;;;;;;;;;;;;;;19.54;38.59;101419.57;104939;1292;62144;-80
2024/02/29 13:15:02;;;;;;;;;;;;;;;19.58;38.66;101422.40;104894;1291;62464;-81
2024/02/29 13:17:28;;;;;;;;;;;;;;;19.65;38.77;101421.81;105181;1288;60449;-81
2024/02/29 13:19:53;;;;;;;;;;;;;;;19.69;38.61;101421.98;105340;1288;62145;-81
2024/02/29 13:22:19;;;;;;;;;;;;;;;19.66;38.57;101419.09;105334;1288;61190;-81
2024/02/29 13:24:45;;;;;;;;;;;;;;;19.73;38.67;101417.95;105340;1288;61473;-80
2024/02/29 13:27:10;;;;;;;;;;;;;;;19.85;38.62;101417.34;105276;1288;60725;-80
2024/02/29 13:29:36;;;;;;;;;;;;;;;19.99;38.87;101415.64;104994;1294;62080;-79
2024/02/29 13:32:02;;;;;;;;;;;;;;;20.13;38.82;101412.55;104605;1290;62510;-80
2024/02/29 13:34:27;;;;;;;;;;;;;;;20.26;38.76;101406.61;104663;1288;62204;-80
2024/02/29 13:36:53;;;;;;;;;;;;;;;20.36;38.79;101401.21;104859;1288;61077;-81
2024/02/29 13:39:18;;;;;;;;;;;;;;;20.44;38.52;101394.30;104707;1288;61077;-80
2024/02/29 13:41:45;;;;;;;;;;;;;;;20.52;38.65;101384.38;104723;1288;62057;-79
2024/02/29 13:44:10;;;;;;;;;;;;;;;20.59;38.55;101382.14;104677;1289;62136;-80
2024/02/29 13:46:36;;;;;;;;;;;;;;;20.65;38.55;101376.08;104360;1288;60384;-80
2024/02/29 13:49:02;;;;;;;;;;;;;;;20.70;38.54;101373.83;104995;1288;62296;-80
2024/02/29 13:51:28;;;;;;;;;;;;;;;20.72;38.43;101369.06;104874;1288;61610;-80
2024/02/29 13:53:53;;;;;;;;;;;;;;;20.74;38.34;101367.50;104385;1289;62111;-79
2024/02/29 13:56:20;;;;;;;;;;;;;;;20.76;38.40;101368.11;104613;1288;62104;-80
2024/02/29 13:58:50;;;;;;;;;;;;;;;20.76;38.31;101365.39;104511;1288;62012;-79
2024/02/29 14:01:16;;;;;;;;;;;;;;;20.76;38.19;101367.71;104613;1288;61212;-79
2024/02/29 14:03:42;;;;;;;;;;;;;;;20.77;38.15;101368.21;104285;1288;62216;-78
2024/02/29 14:06:08;;;;;;;;;;;;;;;20.72;38.07;101369.59;104138;1288;62128;-80
2024/02/29 14:08:33;;;;;;;;;;;;;;;20.57;38.10;101378.14;104538;1289;62214;-82
2024/02/29 14:11:00;;;;;;;;;;;;;;;20.46;38.14;101377.93;104313;1288;62057;-82
2024/02/29 14:13:26;;;;;;;;;;;;;;;20.46;38.09;101374.01;104427;1289;62125;-81
2024/02/29 14:15:51;;;;;;;;;;;;;;;20.45;38.10;101371.71;104145;1290;62172;-80
2024/02/29 14:18:17;;;;;;;;;;;;;;;20.38;38.05;101366.08;104452;1290;62322;-79
2024/02/29 14:20:42;;;;;;;;;;;;;;;20.33;38.17;101355.63;104152;1291;62385;-79
2024/02/29 14:23:08;;;;;;;;;;;;;;;20.36;38.13;101352.79;103952;1291;62230;-80
2024/02/29 14:25:34;;;;;;;;;;;;;;;20.40;38.12;101345.34;104317;1290;62253;-80
2024/02/29 14:28:00;;;;;;;;;;;;;;;20.46;38.12;101345.54;103848;1289;62181;-78
2024/02/29 14:30:25;;;;;;;;;;;;;;;20.53;37.92;101340.15;103558;1288;63411;-79
2024/02/29 14:32:51;;;;;;;;;;;;;;;20.58;38.08;101333.92;103893;1290;62113;-80
2024/02/29 14:35:16;;;;;;;;;;;;;;;20.65;37.82;101334.61;104102;1289;64228;-80
2024/02/29 14:37:42;;;;;;;;;;;;;;;20.69;37.81;101334.52;103639;1291;62227;-79
2024/02/29 14:40:10;;;;;;;;;;;;;;;20.74;37.90;101336.38;103654;1290;62204;-79
2024/02/29 14:42:36;;;;;;;;;;;;;;;20.80;37.83;101334.98;103717;1290;63378;-80
2024/02/29 14:45:02;;;;;;;;;;;;;;;20.85;37.90;101341.98;103722;1289;60165;-81
2024/02/29 14:47:29;;;;;;;;;;;;;;;20.89;37.90;101336.75;103935;1289;62179;-79
2024/02/29 14:49:55;;;;;;;;;;;;;;;20.92;37.87;101332.95;103545;1291;62177;-81
2024/02/29 14:52:20;;;;;;;;;;;;;;;20.84;37.68;101329.13;103876;1289;62195;-79
2024/02/29 14:54:46;;;;;;;;;;;;;;;20.66;37.55;101323.63;103671;1291;62137;-80
2024/02/29 14:57:11;;;;;;;;;;;;;;;20.52;37.77;101319.08;104089;1291;62197;-80
2024/02/29 14:59:38;;;;;;;;;;;;;;;20.48;37.82;101310.73;103784;1293;72854;-78
2024/02/29 15:02:05;;;;;;;;;;;;;;;20.49;37.89;101311.95;103633;1289;75344;-79
2024/02/29 15:04:31;;;;;;;;;;;;;;;20.35;37.83;101317.43;104297;1294;62088;-81
2024/02/29 15:06:57;;;;;;;;;;;;;;;20.06;37.62;101316.62;103601;1291;62265;-81
2024/02/29 15:09:23;;;;;;;;;;;;;;;19.86;37.87;101315.66;103961;1292;62078;-81
2024/02/29 15:11:48;;;;;;;;;;;;;;;19.70;38.04;101316.16;104108;1294;62396;-79
2024/02/29 15:14:15;;;;;;;;;;;;;;;19.66;38.33;101325.35;104364;1288;62089;-82
2024/02/29 15:16:40;;;;;;;;;;;;;;;19.74;38.42;101323.78;104026;1294;62127;-80
2024/02/29 15:19:06;;;;;;;;;;;;;;;19.84;38.48;101326.67;103912;1288;62815;-79
2024/02/29 15:21:32;;;;;;;;;;;;;;;19.93;38.37;101326.85;103837;1291;71839;-80
2024/02/29 15:23:57;;;;;;;;;;;;;;;20.01;38.24;101326.38;104260;1288;62194;-81
2024/02/29 15:26:24;;;;;;;;;;;;;;;20.08;38.19;101323.83;104118;1292;62217;-80
2024/02/29 15:28:50;;;;;;;;;;;;;;;20.17;38.15;101327.09;103806;1289;62207;-79
2024/02/29 15:31:16;;;;;;;;;;;;;;;20.24;38.01;101327.53;103965;1289;61114;-79
2024/02/29 15:33:42;;;;;;;;;;;;;;;20.33;38.09;101330.27;104024;1290;62228;-80
2024/02/29 15:36:07;;;;;;;;;;;;;;;20.39;37.88;101331.11;104108;1292;62124;-81
2024/02/29 15:38:33;;;;;;;;;;;;;;;20.47;37.98;101315.30;103946;1288;62243;-79
2024/02/29 15:40:59;;;;;;;;;;;;;;;20.54;37.75;101316.66;104254;1292;61045;-80
2024/02/29 15:43:25;;;;;;;;;;;;;;;20.59;37.94;101314.01;104359;1288;62083;-79
2024/02/29 15:45:50;;;;;;;;;;;;;;;20.63;37.82;101312.16;104003;1290;62258;-78
2024/02/29 15:48:16;;;;;;;;;;;;;;;20.66;37.73;101311.42;103775;1292;63284;-80
2024/02/29 15:50:42;;;;;;;;;;;;;;;20.69;37.74;101312.70;104308;1291;62197;-79
2024/02/29 15:53:07;;;;;;;;;;;;;;;20.72;37.65;101317.03;104719;1290;62065;-80
2024/02/29 15:55:32;;;;;;;;;;;;;;;20.71;37.54;101314.36;104592;1289;62066;-79
2024/02/29 15:57:58;;;;;;;;;;;;;;;20.67;37.80;101316.05;104468;1291;62147;-79
2024/02/29 16:00:24;;;;;;;;;;;;;;;20.58;37.64;101320.72;105120;1289;62095;-79
2024/02/29 16:02:50;;;;;;;;;;;;;;;20.39;37.55;101323.29;104915;1291;62217;-80
2024/02/29 16:05:16;;;;;;;;;;;;;;;20.18;37.65;101328.95;104783;1288;62376;-78